createdAt,value
2018-07-24T00:03:33.166Z,20.65
2018-07-24T00:08:36.722Z,20.46
2018-07-24T00:13:40.276Z,20.66
2018-07-24T00:18:43.936Z,20.73
2018-07-24T00:23:47.478Z,20.72
2018-07-24T00:28:51.054Z,20.33
2018-07-24T00:33:54.982Z,20.36
2018-07-24T00:38:58.528Z,20.27
2018-07-24T00:44:02.095Z,20.43
2018-07-24T00:49:05.662Z,20.46
2018-07-24T00:54:09.331Z,20.38
2018-07-24T00:59:12.861Z,20.17
2018-07-24T01:04:16.421Z,20.06
2018-07-24T01:09:20.070Z,20.01
2018-07-24T01:14:23.710Z,19.97
2018-07-24T01:19:27.335Z,19.94
2018-07-24T01:24:31.125Z,19.82
2018-07-24T01:29:34.677Z,19.72
2018-07-24T01:34:38.324Z,19.48
2018-07-24T01:39:41.918Z,19.25
2018-07-24T01:44:45.601Z,19.29
2018-07-24T01:49:49.191Z,19.15
2018-07-24T01:54:52.807Z,19.28
2018-07-24T01:59:56.414Z,19.32
2018-07-24T02:05:00.000Z,19.24
2018-07-24T02:10:05.507Z,18.55
2018-07-24T02:15:09.282Z,18.81
2018-07-24T02:20:12.900Z,19.09
2018-07-24T02:25:16.489Z,19.06
2018-07-24T02:30:20.136Z,18.89
2018-07-24T02:35:23.634Z,18.57
2018-07-24T02:40:27.187Z,18.33
2018-07-24T02:45:30.835Z,18.45
2018-07-24T02:50:34.370Z,18.63
2018-07-24T02:55:37.910Z,18.36
2018-07-24T03:00:41.522Z,18.31
2018-07-24T03:05:45.123Z,18.36
2018-07-24T03:10:48.747Z,18.45
2018-07-24T03:15:52.298Z,18.32
2018-07-24T03:20:56.088Z,18.36
2018-07-24T03:26:03.816Z,18.41
2018-07-24T03:31:07.362Z,18.27
2018-07-24T03:36:10.905Z,18.08
2018-07-24T03:41:14.454Z,18.15
2018-07-24T03:46:18.619Z,18.03
2018-07-24T03:51:22.242Z,18.06
2018-07-24T03:56:25.938Z,18.18
2018-07-24T04:01:29.661Z,18.10
2018-07-24T04:06:33.170Z,18.27
2018-07-24T04:11:37.262Z,18.25
2018-07-24T04:16:40.964Z,18.44
2018-07-24T04:21:45.354Z,18.50
2018-07-24T04:26:49.078Z,18.51
2018-07-24T04:31:52.854Z,18.49
2018-07-24T04:36:57.163Z,18.52
2018-07-24T04:42:02.007Z,18.69
2018-07-24T04:47:05.683Z,18.72
2018-07-24T04:52:09.326Z,19.11
2018-07-24T04:57:13.018Z,19.41
2018-07-24T05:02:16.981Z,19.48
2018-07-24T05:07:20.760Z,19.56
2018-07-24T05:12:24.587Z,19.62
2018-07-24T05:17:28.292Z,19.90
2018-07-24T05:22:32.674Z,20.07
2018-07-24T05:27:36.597Z,20.24
2018-07-24T05:32:40.520Z,20.33
2018-07-24T05:37:44.135Z,20.42
2018-07-24T05:42:48.219Z,20.52
2018-07-24T05:47:51.851Z,20.68
2018-07-24T05:52:55.657Z,20.69
2018-07-24T05:57:59.435Z,20.91
2018-07-24T06:03:03.042Z,20.93
2018-07-24T06:08:09.279Z,21.10
2018-07-24T06:13:13.798Z,21.24
2018-07-24T06:18:19.752Z,21.30
2018-07-24T06:23:24.467Z,21.33
2018-07-24T06:44:52.446Z,21.95
2018-07-24T06:49:55.985Z,22.04
2018-07-24T06:54:59.676Z,22.12
2018-07-24T07:00:17.644Z,22.24
2018-07-24T07:05:21.296Z,22.37
2018-07-24T07:10:25.332Z,22.50
2018-07-24T07:15:28.946Z,22.66
2018-07-24T07:20:33.354Z,22.73
2018-07-24T07:25:37.199Z,22.85
2018-07-24T07:30:40.844Z,22.99
2018-07-24T07:35:44.389Z,23.13
2018-07-24T07:40:48.159Z,23.19
2018-07-24T07:45:51.828Z,23.43
2018-07-24T07:50:55.688Z,23.49
2018-07-24T07:56:00.110Z,23.53
2018-07-24T08:01:03.815Z,23.82
2018-07-24T08:06:07.806Z,24.02
2018-07-24T08:11:11.965Z,24.09
2018-07-24T08:16:16.075Z,24.07
2018-07-24T08:21:19.790Z,24.44
2018-07-24T08:26:23.479Z,24.52
2018-07-24T08:31:27.101Z,24.37
2018-07-24T08:36:30.868Z,24.60
2018-07-24T08:41:34.499Z,25.07
2018-07-24T08:46:39.253Z,25.23
2018-07-24T08:51:42.765Z,25.47
2018-07-24T08:56:46.495Z,25.25
2018-07-24T09:01:50.219Z,25.20
2018-07-24T09:06:54.839Z,25.52
2018-07-24T09:11:59.315Z,25.48
2018-07-24T09:17:03.404Z,25.37
2018-07-24T09:22:08.368Z,25.50
2018-07-24T09:27:12.276Z,25.37
2018-07-24T09:32:16.435Z,25.62
2018-07-24T09:37:20.110Z,25.73
2018-07-24T09:42:23.674Z,26.13
2018-07-24T09:47:27.759Z,25.79
2018-07-24T09:52:31.445Z,25.82
2018-07-24T09:57:34.945Z,26.10
2018-07-24T10:02:39.040Z,26.18
2018-07-24T10:07:43.225Z,26.44
2018-07-24T10:12:47.206Z,26.24
2018-07-24T10:17:51.930Z,26.38
2018-07-24T10:22:56.225Z,26.30
2018-07-24T10:28:00.361Z,26.70
2018-07-24T10:33:04.775Z,26.52
2018-07-24T10:38:08.970Z,26.76
2018-07-24T10:43:13.319Z,26.67
2018-07-24T10:48:19.682Z,27.00
2018-07-24T10:53:23.934Z,26.67
2018-07-24T10:58:28.368Z,27.04
2018-07-24T11:03:32.860Z,27.49
2018-07-24T11:08:37.086Z,27.93
2018-07-24T11:13:41.362Z,27.88
2018-07-24T11:18:45.889Z,27.55
2018-07-24T11:23:50.244Z,27.52
2018-07-24T11:28:54.366Z,28.18
2018-07-24T11:33:58.499Z,28.41
2018-07-24T11:39:02.573Z,28.80
2018-07-24T11:44:08.219Z,28.73
2018-07-24T11:49:12.534Z,28.71
2018-07-24T11:54:17.584Z,28.88
2018-07-24T11:59:22.201Z,29.78
2018-07-24T12:04:26.181Z,29.47
2018-07-24T12:09:30.251Z,29.84
2018-07-24T12:14:37.831Z,30.33
2018-07-24T12:19:43.009Z,30.57
2018-07-24T12:24:47.129Z,31.49
2018-07-24T12:29:51.412Z,31.81
2018-07-24T12:34:57.585Z,32.07
2018-07-24T12:40:07.353Z,31.76
2018-07-24T12:45:11.689Z,30.78
2018-07-24T12:50:16.540Z,31.43
2018-07-24T12:55:22.067Z,32.27
2018-07-24T13:00:26.365Z,32.50
2018-07-24T13:05:31.373Z,32.21
2018-07-24T13:10:35.368Z,33.09
2018-07-24T13:15:39.753Z,32.44
2018-07-24T13:20:43.746Z,31.85
2018-07-24T13:25:47.563Z,31.93
2018-07-24T13:30:51.588Z,32.12
2018-07-24T13:35:55.570Z,31.84
2018-07-24T13:41:00.079Z,32.00
2018-07-24T13:46:04.124Z,31.94
2018-07-24T13:51:08.917Z,31.91
2018-07-24T13:56:14.018Z,31.71
2018-07-24T14:01:18.038Z,31.83
2018-07-24T14:06:22.276Z,31.87
2018-07-24T14:11:26.262Z,31.76
2018-07-24T14:16:30.063Z,31.95
2018-07-24T14:21:33.929Z,31.86
2018-07-24T14:26:37.646Z,31.80
2018-07-24T14:31:42.020Z,31.92
2018-07-24T14:36:46.333Z,31.74
2018-07-24T14:41:51.194Z,32.03
2018-07-24T14:46:55.507Z,32.09
2018-07-24T14:52:00.583Z,32.03
2018-07-24T14:57:04.472Z,32.33
2018-07-24T15:02:08.607Z,32.33
2018-07-24T15:07:13.158Z,32.83
2018-07-24T15:12:17.336Z,33.49
2018-07-24T15:17:22.538Z,33.21
2018-07-24T15:22:26.841Z,33.64
2018-07-24T15:27:30.900Z,33.91
2018-07-24T15:32:35.588Z,34.31
2018-07-24T15:37:39.531Z,34.22
2018-07-24T15:42:43.342Z,34.04
2018-07-24T15:47:47.721Z,34.85
2018-07-24T15:52:51.785Z,35.74
2018-07-24T15:57:55.931Z,35.74
2018-07-24T16:03:00.512Z,36.04
2018-07-24T16:08:06.121Z,37.63
2018-07-24T16:13:10.302Z,38.33
2018-07-24T16:18:15.637Z,40.91
2018-07-24T16:23:19.874Z,41.51
2018-07-24T16:28:25.322Z,39.96
2018-07-24T16:33:29.756Z,37.31
2018-07-24T16:38:34.556Z,37.33
2018-07-24T16:43:38.797Z,36.00
2018-07-24T16:48:43.462Z,35.15
2018-07-24T16:53:47.709Z,33.99
2018-07-24T16:58:51.755Z,33.69
2018-07-24T17:03:56.815Z,33.77
2018-07-24T17:09:01.477Z,33.70
2018-07-24T17:14:06.890Z,33.65
2018-07-24T17:19:14.917Z,33.59
2018-07-24T17:24:20.363Z,33.71
2018-07-24T17:29:24.779Z,33.35
2018-07-24T17:34:29.501Z,33.57
2018-07-24T17:39:33.835Z,33.64
2018-07-24T17:44:37.876Z,35.20
2018-07-24T17:49:43.019Z,34.97
2018-07-24T17:54:47.572Z,33.67
2018-07-24T17:59:52.174Z,32.86
2018-07-24T18:04:56.496Z,32.59
2018-07-24T18:15:13.097Z,32.73
2018-07-24T18:20:17.274Z,32.31
2018-07-24T18:25:21.782Z,32.26
2018-07-24T18:30:26.161Z,31.88
2018-07-24T18:35:31.586Z,31.61
2018-07-24T18:40:35.660Z,31.61
2018-07-24T18:45:40.087Z,31.12
2018-07-24T18:50:44.586Z,30.66
2018-07-24T18:55:49.810Z,30.43
2018-07-24T19:00:54.103Z,30.28
2018-07-24T19:05:58.483Z,29.93
2018-07-24T19:11:02.894Z,29.73
2018-07-24T19:16:08.730Z,29.65
2018-07-24T19:21:13.634Z,29.33
2018-07-24T19:26:17.722Z,29.19
2018-07-24T19:31:22.028Z,29.14
2018-07-24T19:36:26.096Z,29.12
2018-07-24T19:41:30.158Z,29.03
2018-07-24T19:46:34.223Z,28.91
2018-07-24T19:51:38.566Z,28.79
2018-07-24T19:56:42.383Z,28.66
2018-07-24T20:01:46.817Z,28.57
2018-07-24T20:06:50.898Z,28.36
2018-07-24T20:11:55.772Z,28.31
2018-07-24T20:16:59.914Z,27.92
2018-07-24T20:22:04.934Z,27.71
2018-07-24T20:27:08.957Z,27.73
2018-07-24T20:32:13.540Z,27.64
2018-07-24T20:37:17.530Z,27.59
2018-07-24T20:42:21.498Z,27.52
2018-07-24T20:47:25.206Z,27.37
2018-07-24T20:52:29.106Z,27.22
2018-07-24T20:57:32.657Z,27.05
2018-07-24T21:02:36.615Z,26.95
2018-07-24T21:07:40.178Z,26.97
2018-07-24T21:12:44.839Z,26.85
2018-07-24T21:17:48.539Z,26.89
2018-07-24T21:22:52.987Z,26.74
2018-07-24T21:27:57.141Z,26.65
2018-07-24T21:33:00.813Z,26.55
2018-07-24T21:38:04.513Z,26.31
2018-07-24T21:43:08.039Z,26.37
2018-07-24T21:48:11.789Z,26.35
2018-07-24T21:53:15.846Z,26.21
2018-07-24T21:58:19.926Z,26.05
2018-07-24T22:03:23.911Z,26.05
2018-07-24T22:08:28.146Z,25.68
2018-07-24T22:13:32.600Z,25.73
2018-07-24T22:18:36.999Z,25.72
2018-07-24T22:23:41.174Z,25.75
2018-07-24T22:28:44.722Z,25.72
2018-07-24T22:33:48.513Z,25.40
2018-07-24T22:38:52.724Z,25.50
2018-07-24T22:43:56.235Z,25.27
2018-07-24T22:48:59.784Z,25.26
2018-07-24T22:54:03.654Z,25.05
2018-07-24T22:59:07.299Z,24.91
2018-07-24T23:04:11.164Z,24.71
2018-07-24T23:09:14.754Z,24.88
2018-07-24T23:14:18.316Z,24.55
2018-07-24T23:19:22.263Z,24.59
2018-07-24T23:24:25.988Z,24.47
2018-07-24T23:29:29.951Z,24.46
2018-07-24T23:34:33.960Z,24.38
2018-07-24T23:39:37.871Z,24.37
2018-07-24T23:44:41.493Z,24.36
2018-07-24T23:49:45.443Z,24.23
2018-07-24T23:54:49.122Z,24.31
2018-07-24T23:59:52.867Z,24.15
